createdAt,value
2016-12-24T00:00:42.793Z,0.47
2016-12-24T00:01:42.780Z,0.42
2016-12-24T00:02:42.757Z,0.56
2016-12-24T00:03:42.751Z,0.56
2016-12-24T00:04:42.729Z,0.61
2016-12-24T00:05:42.711Z,0.64
2016-12-24T00:06:42.694Z,0.64
2016-12-24T00:07:42.673Z,0.66
2016-12-24T00:08:42.665Z,0.71
2016-12-24T00:09:42.641Z,0.72
2016-12-24T00:10:42.630Z,0.78
2016-12-24T00:11:42.608Z,0.79
2016-12-24T00:12:42.586Z,0.86
2016-12-24T00:13:42.576Z,0.89
2016-12-24T00:14:42.553Z,0.99
2016-12-24T00:15:42.537Z,0.92
2016-12-24T00:16:42.522Z,0.99
2016-12-24T00:17:42.504Z,1.1
2016-12-24T00:18:42.483Z,0.99
2016-12-24T00:19:42.473Z,1.04
2016-12-24T00:20:42.452Z,1.07
2016-12-24T00:21:42.439Z,1.14
2016-12-24T00:22:42.424Z,1.07
2016-12-24T00:23:42.429Z,1.11
2016-12-24T00:24:42.384Z,1.12
2016-12-24T00:25:42.370Z,1.08
2016-12-24T00:26:42.355Z,1.12
2016-12-24T00:27:42.333Z,1.14
2016-12-24T00:28:42.634Z,1.12
2016-12-24T00:29:42.483Z,1.18
2016-12-24T00:30:42.292Z,1.18
2016-12-24T00:31:42.267Z,1.2
2016-12-24T00:32:42.253Z,1.18
2016-12-24T00:33:42.236Z,1.2
2016-12-24T00:34:42.436Z,1.29
2016-12-24T00:35:42.639Z,1.26
2016-12-24T00:36:42.446Z,1.28
2016-12-24T00:37:42.751Z,1.32
2016-12-24T00:38:42.152Z,1.33
2016-12-24T00:39:42.133Z,1.3
2016-12-24T00:40:42.119Z,1.29
2016-12-24T00:41:42.349Z,1.38
2016-12-24T00:42:42.353Z,1.39
2016-12-24T00:43:42.553Z,1.35
2016-12-24T00:44:42.717Z,1.36
2016-12-24T00:45:42.469Z,1.48
2016-12-24T00:46:42.017Z,1.5
2016-12-24T00:47:41.997Z,1.53
2016-12-24T00:48:42.245Z,1.44
2016-12-24T00:49:42.668Z,1.54
2016-12-24T00:50:42.781Z,1.5
2016-12-24T00:51:42.462Z,1.54
2016-12-24T00:52:42.059Z,1.47
2016-12-24T00:53:41.902Z,1.47
2016-12-24T00:54:41.887Z,1.56
2016-12-24T00:55:42.201Z,1.57
2016-12-24T00:56:42.480Z,1.58
2016-12-24T00:57:42.440Z,1.58
2016-12-24T00:58:42.331Z,1.65
2016-12-24T00:59:42.276Z,1.57
2016-12-24T01:00:41.857Z,1.57
2016-12-24T01:01:41.829Z,1.69
2016-12-24T01:02:41.755Z,1.69
2016-12-24T01:03:42.021Z,1.78
2016-12-24T01:04:42.398Z,1.71
2016-12-24T01:05:42.270Z,1.82
2016-12-24T01:06:42.350Z,1.79
2016-12-24T01:07:42.285Z,1.79
2016-12-24T01:08:41.800Z,1.75
2016-12-24T01:09:41.645Z,1.72
2016-12-24T01:10:41.623Z,1.72
2016-12-24T01:11:41.612Z,1.74
2016-12-24T01:12:41.803Z,1.74
2016-12-24T01:13:42.143Z,1.71
2016-12-24T01:14:42.213Z,1.76
2016-12-24T01:15:42.316Z,1.72
2016-12-24T01:16:41.528Z,1.78
2016-12-24T01:17:41.512Z,1.71
2016-12-24T01:18:41.494Z,1.69
2016-12-24T01:19:41.478Z,1.78
2016-12-24T01:20:42.017Z,1.76
2016-12-24T01:21:41.447Z,1.56
2016-12-24T01:22:41.431Z,1.57
2016-12-24T01:23:41.421Z,1.68
2016-12-24T01:24:42.126Z,1.64
2016-12-24T01:25:42.116Z,1.68
2016-12-24T01:26:41.436Z,1.69
2016-12-24T01:27:41.960Z,1.71
2016-12-24T01:28:41.331Z,1.72
2016-12-24T01:29:41.315Z,1.71
2016-12-24T01:30:41.298Z,1.79
2016-12-24T01:31:41.685Z,1.75
2016-12-24T01:32:41.952Z,1.83
2016-12-24T01:33:41.453Z,1.84
2016-12-24T01:34:41.934Z,1.84
2016-12-24T01:35:41.221Z,1.87
2016-12-24T01:36:41.622Z,1.87
2016-12-24T01:37:41.615Z,1.86
2016-12-24T01:38:41.175Z,1.82
2016-12-24T01:39:41.154Z,1.87
2016-12-24T01:40:41.137Z,1.79
2016-12-24T01:41:41.730Z,1.83
2016-12-24T01:42:41.680Z,1.84
2016-12-24T01:43:41.723Z,1.79
2016-12-24T01:44:41.575Z,1.86
2016-12-24T01:45:41.385Z,1.83
2016-12-24T01:46:41.043Z,1.83
2016-12-24T01:47:41.025Z,1.78
2016-12-24T01:48:41.003Z,1.87
2016-12-24T01:49:41.401Z,1.82
2016-12-24T01:50:41.542Z,1.76
2016-12-24T01:51:41.260Z,1.72
2016-12-24T01:52:41.547Z,1.79
2016-12-24T01:53:40.924Z,1.69
2016-12-24T01:54:40.907Z,1.76
2016-12-24T01:55:40.891Z,1.57
2016-12-24T01:56:40.877Z,1.57
2016-12-24T01:57:40.857Z,1.64
2016-12-24T01:58:40.843Z,1.57
2016-12-24T01:59:40.829Z,1.57
2016-12-24T02:00:40.810Z,1.56
2016-12-24T02:01:40.794Z,1.64
2016-12-24T02:02:40.780Z,1.58
2016-12-24T02:03:40.763Z,1.56
2016-12-24T02:04:40.744Z,1.58
2016-12-24T02:05:40.731Z,1.6
2016-12-24T02:06:40.713Z,1.68
2016-12-24T02:07:40.695Z,1.57
2016-12-24T02:08:40.678Z,1.57
2016-12-24T02:09:40.665Z,1.57
2016-12-24T02:10:40.647Z,1.56
2016-12-24T02:11:40.628Z,1.57
2016-12-24T02:12:40.616Z,1.47
2016-12-24T02:13:40.604Z,1.51
2016-12-24T02:14:40.583Z,1.47
2016-12-24T02:15:40.566Z,1.44
2016-12-24T02:16:40.548Z,1.54
2016-12-24T02:17:40.533Z,1.61
2016-12-24T02:18:40.516Z,1.53
2016-12-24T02:19:40.501Z,1.65
2016-12-24T02:20:40.484Z,1.58
2016-12-24T02:21:40.467Z,1.72
2016-12-24T02:22:40.449Z,1.75
2016-12-24T02:23:40.433Z,1.74
2016-12-24T02:24:40.440Z,1.74
2016-12-24T02:25:40.402Z,1.72
2016-12-24T02:26:40.393Z,1.75
2016-12-24T02:27:40.371Z,1.75
2016-12-24T02:28:40.352Z,1.71
2016-12-24T02:29:40.342Z,1.72
2016-12-24T02:30:40.320Z,1.74
2016-12-24T02:31:40.304Z,1.61
2016-12-24T02:32:40.288Z,1.56
2016-12-24T02:33:40.273Z,1.57
2016-12-24T02:34:40.256Z,1.6
2016-12-24T02:35:40.865Z,1.72
2016-12-24T02:36:40.453Z,1.58
2016-12-24T02:37:40.208Z,1.69
2016-12-24T02:38:40.914Z,1.75
2016-12-24T02:39:40.174Z,1.74
2016-12-24T02:40:40.161Z,1.76
2016-12-24T02:41:40.533Z,1.72
2016-12-24T02:42:40.127Z,1.71
2016-12-24T02:43:40.431Z,1.74
2016-12-24T02:44:40.573Z,1.84
2016-12-24T02:45:40.092Z,1.82
2016-12-24T02:46:40.086Z,1.83
2016-12-24T02:47:40.045Z,2.01
2016-12-24T02:48:40.026Z,1.98
2016-12-24T02:49:40.013Z,2.05
2016-12-24T02:50:40.177Z,2.08
2016-12-24T02:51:39.992Z,2.08
2016-12-24T02:52:39.963Z,2.04
2016-12-24T02:53:40.054Z,2.13
2016-12-24T02:54:39.933Z,2.04
2016-12-24T02:55:39.912Z,2.05
2016-12-24T02:56:40.415Z,2.01
2016-12-24T02:57:39.883Z,2.11
2016-12-24T02:58:39.870Z,2.06
2016-12-24T02:59:40.173Z,2.16
2016-12-24T03:00:39.836Z,2.12
2016-12-24T03:01:39.982Z,2.06
2016-12-24T03:02:39.801Z,2.15
2016-12-24T03:03:39.784Z,2.08
2016-12-24T03:04:39.895Z,2.15
2016-12-24T03:05:39.754Z,2.2
2016-12-24T03:06:39.741Z,2.18
2016-12-24T03:07:39.872Z,2.23
2016-12-24T03:08:39.708Z,2.23
2016-12-24T03:09:39.688Z,2.23
2016-12-24T03:10:39.816Z,2.18
2016-12-24T03:11:39.656Z,2.22
2016-12-24T03:12:40.278Z,2.27
2016-12-24T03:13:39.622Z,2.29
2016-12-24T03:14:39.613Z,2.3
2016-12-24T03:15:39.593Z,2.24
2016-12-24T03:16:39.750Z,2.3
2016-12-24T03:17:39.591Z,2.26
2016-12-24T03:18:39.547Z,2.31
2016-12-24T03:19:39.808Z,2.26
2016-12-24T03:20:39.514Z,2.15
2016-12-24T03:21:39.503Z,2.16
2016-12-24T03:22:39.904Z,2.22
2016-12-24T03:23:39.465Z,2.13
2016-12-24T03:24:39.452Z,2.15
2016-12-24T03:25:39.435Z,2.13
2016-12-24T03:26:39.424Z,2.23
2016-12-24T03:27:39.404Z,2.23
2016-12-24T03:28:39.389Z,2.13
2016-12-24T03:29:39.370Z,2.26
2016-12-24T03:30:39.358Z,2.29
2016-12-24T03:31:39.339Z,2.18
2016-12-24T03:32:39.328Z,2.33
2016-12-24T03:33:39.397Z,2.3
2016-12-24T03:34:39.322Z,2.33
2016-12-24T03:35:39.344Z,2.27
2016-12-24T03:36:39.261Z,2.31
2016-12-24T03:37:39.246Z,2.33
2016-12-24T03:38:39.227Z,2.29
2016-12-24T03:39:39.211Z,2.3
2016-12-24T03:40:39.196Z,2.16
2016-12-24T03:41:39.183Z,2.2
2016-12-24T03:42:39.165Z,2.2
2016-12-24T03:43:39.155Z,2.23
2016-12-24T03:44:39.132Z,2.16
2016-12-24T03:45:39.122Z,2.22
2016-12-24T03:46:39.104Z,2.15
2016-12-24T03:47:39.116Z,2.16
2016-12-24T03:48:39.070Z,2.15
2016-12-24T03:49:39.056Z,2.15
2016-12-24T03:50:39.042Z,2.15
2016-12-24T03:51:39.025Z,2.18
2016-12-24T03:52:39.006Z,2.22
2016-12-24T03:53:38.991Z,2.2
2016-12-24T03:54:38.979Z,2.16
2016-12-24T03:55:38.959Z,2.22
2016-12-24T03:56:38.941Z,2.15
2016-12-24T03:57:38.926Z,2.18
2016-12-24T03:58:38.917Z,2.22
2016-12-24T03:59:38.895Z,2.24
2016-12-24T04:00:38.881Z,2.18
2016-12-24T04:01:38.867Z,2.22
2016-12-24T04:02:38.851Z,2.2
2016-12-24T04:03:38.830Z,2.18
2016-12-24T04:04:38.819Z,2.15
2016-12-24T04:05:38.803Z,2.16
2016-12-24T04:06:38.791Z,2.2
2016-12-24T04:07:39.118Z,2.15
2016-12-24T04:08:38.752Z,2.16
2016-12-24T04:09:38.740Z,2.13
2016-12-24T04:10:38.723Z,2.18
2016-12-24T04:11:38.706Z,2.18
2016-12-24T04:12:38.692Z,2.12
2016-12-24T04:13:38.677Z,2.11
2016-12-24T04:14:38.658Z,2.11
2016-12-24T04:15:38.645Z,2.13
2016-12-24T04:16:38.953Z,2.16
2016-12-24T04:17:38.610Z,2.11
2016-12-24T04:18:38.591Z,2.13
2016-12-24T04:19:38.578Z,2.15
2016-12-24T04:20:38.562Z,2.13
2016-12-24T04:21:38.544Z,2.13
2016-12-24T04:22:38.532Z,2.15
2016-12-24T04:23:38.833Z,2.15
2016-12-24T04:24:38.497Z,2.15
2016-12-24T04:25:38.797Z,2.15
2016-12-24T04:26:38.464Z,2.13
2016-12-24T04:27:38.450Z,2.18
2016-12-24T04:28:38.433Z,2.22
2016-12-24T04:29:38.419Z,2.18
2016-12-24T04:30:38.404Z,2.08
2016-12-24T04:31:38.416Z,2.15
2016-12-24T04:32:38.370Z,2.13
2016-12-24T04:33:38.353Z,2.12
2016-12-24T04:34:38.366Z,2.16
2016-12-24T04:35:38.324Z,2.23
2016-12-24T04:36:38.310Z,2.13
2016-12-24T04:37:38.293Z,2.24
2016-12-24T04:38:38.275Z,2.18
2016-12-24T04:39:38.283Z,2.24
2016-12-24T04:40:38.241Z,2.23
2016-12-24T04:41:38.226Z,2.24
2016-12-24T04:42:38.210Z,2.23
2016-12-24T04:43:38.193Z,2.15
2016-12-24T04:44:38.179Z,2.27
2016-12-24T04:45:38.163Z,2.27
2016-12-24T04:46:38.151Z,2.3
2016-12-24T04:47:38.130Z,2.33
2016-12-24T04:48:38.113Z,2.27
2016-12-24T04:49:38.100Z,2.31
2016-12-24T04:50:38.089Z,2.31
2016-12-24T04:51:38.069Z,2.3
2016-12-24T04:52:38.082Z,2.24
2016-12-24T04:53:38.046Z,2.3
2016-12-24T04:54:38.025Z,2.26
2016-12-24T04:55:38.016Z,2.31
2016-12-24T04:56:37.990Z,2.29
2016-12-24T04:57:37.978Z,2.33
2016-12-24T04:58:37.955Z,2.3
2016-12-24T04:59:37.941Z,2.29
2016-12-24T05:00:37.921Z,2.29
2016-12-24T05:01:37.913Z,2.3
2016-12-24T05:02:37.893Z,2.27
2016-12-24T05:03:37.877Z,2.3
2016-12-24T05:04:37.859Z,2.36
2016-12-24T05:05:37.843Z,2.31
2016-12-24T05:06:37.829Z,2.3
2016-12-24T05:07:37.811Z,2.29
2016-12-24T05:08:37.797Z,2.34
2016-12-24T05:09:37.779Z,2.33
2016-12-24T05:10:38.091Z,2.29
2016-12-24T05:11:37.746Z,2.31
2016-12-24T05:12:37.731Z,2.44
2016-12-24T05:13:38.030Z,2.34
2016-12-24T05:14:37.702Z,2.38
2016-12-24T05:15:37.684Z,2.33
2016-12-24T05:16:37.667Z,2.34
2016-12-24T05:17:37.654Z,2.4
2016-12-24T05:18:37.638Z,2.29
2016-12-24T05:19:37.620Z,2.4
2016-12-24T05:20:37.608Z,2.41
2016-12-24T05:21:37.588Z,2.4
2016-12-24T05:22:37.576Z,2.3
2016-12-24T05:23:37.560Z,2.4
2016-12-24T05:24:37.543Z,2.38
2016-12-24T05:25:37.534Z,2.29
2016-12-24T05:26:37.513Z,2.36
2016-12-24T05:27:37.497Z,2.38
2016-12-24T05:28:37.481Z,2.36
2016-12-24T05:29:37.463Z,2.36
2016-12-24T05:30:37.450Z,2.36
2016-12-24T05:31:37.433Z,2.38
2016-12-24T05:32:37.418Z,2.45
2016-12-24T05:33:37.403Z,2.42
2016-12-24T05:34:37.415Z,2.31
2016-12-24T05:35:37.373Z,2.4
2016-12-24T05:36:37.354Z,2.4
2016-12-24T05:37:37.341Z,2.33
2016-12-24T05:38:37.322Z,2.31
2016-12-24T05:39:37.310Z,2.4
2016-12-24T05:40:37.358Z,2.41
2016-12-24T05:41:37.776Z,2.44
2016-12-24T05:42:37.924Z,2.4
2016-12-24T05:43:37.707Z,2.44
2016-12-24T05:44:37.230Z,2.41
2016-12-24T05:45:37.219Z,2.31
2016-12-24T05:46:37.201Z,2.42
2016-12-24T05:47:37.671Z,2.31
2016-12-24T05:48:37.528Z,2.34
2016-12-24T05:49:37.468Z,2.41
2016-12-24T05:50:37.541Z,2.33
2016-12-24T05:51:37.121Z,2.41
2016-12-24T05:52:37.106Z,2.42
2016-12-24T05:53:37.087Z,2.41
2016-12-24T05:54:37.231Z,2.45
2016-12-24T05:55:37.309Z,2.41
2016-12-24T05:56:37.354Z,2.47
2016-12-24T05:57:37.501Z,2.31
2016-12-24T05:58:37.114Z,2.33
2016-12-24T05:59:36.995Z,2.45
2016-12-24T06:00:36.979Z,2.47
2016-12-24T06:01:36.965Z,2.36
2016-12-24T06:02:36.944Z,2.41
2016-12-24T06:03:37.183Z,2.44
2016-12-24T06:04:37.442Z,2.51
2016-12-24T06:05:37.114Z,2.31
2016-12-24T06:06:37.367Z,2.33
2016-12-24T06:07:36.870Z,2.4
2016-12-24T06:08:36.851Z,2.4
2016-12-24T06:09:36.839Z,2.38
2016-12-24T06:10:37.407Z,2.33
2016-12-24T06:11:37.243Z,2.41
2016-12-24T06:12:37.345Z,2.38
2016-12-24T06:13:37.205Z,2.38
2016-12-24T06:14:37.169Z,2.33
2016-12-24T06:15:36.744Z,2.36
2016-12-24T06:16:36.729Z,2.31
2016-12-24T06:17:37.392Z,2.34
2016-12-24T06:18:37.329Z,2.33
2016-12-24T06:19:37.141Z,2.34
2016-12-24T06:20:37.216Z,2.3
2016-12-24T06:21:36.647Z,2.26
2016-12-24T06:22:36.632Z,2.26
2016-12-24T06:23:36.615Z,2.23
2016-12-24T06:24:36.799Z,2.22
2016-12-24T06:25:37.209Z,2.22
2016-12-24T06:26:36.955Z,2.2
2016-12-24T06:27:37.039Z,2.23
2016-12-24T06:28:37.026Z,2.12
2016-12-24T06:29:36.520Z,2.23
2016-12-24T06:30:36.882Z,2.23
2016-12-24T06:31:36.493Z,2.13
2016-12-24T06:32:36.474Z,2.18
2016-12-24T06:33:36.599Z,2.11
2016-12-24T06:34:36.915Z,2.18
2016-12-24T06:35:37.006Z,2.22
2016-12-24T06:36:37.042Z,2.11
2016-12-24T06:37:36.803Z,2.16
2016-12-24T06:38:36.382Z,2.15
2016-12-24T06:39:36.364Z,2.16
2016-12-24T06:40:36.343Z,2.18
2016-12-24T06:41:36.811Z,2.12
2016-12-24T06:42:36.639Z,2.12
2016-12-24T06:43:36.905Z,2.16
2016-12-24T06:44:36.569Z,2.12
2016-12-24T06:45:36.266Z,2.13
2016-12-24T06:46:37.061Z,2.16
2016-12-24T06:47:36.233Z,2.23
2016-12-24T06:48:36.215Z,2.18
2016-12-24T06:49:36.202Z,2.23
2016-12-24T06:50:36.186Z,2.16
2016-12-24T06:51:36.519Z,2.26
2016-12-24T06:52:36.870Z,2.22
2016-12-24T06:53:36.735Z,2.18
2016-12-24T06:54:36.192Z,2.26
2016-12-24T06:55:36.104Z,2.2
2016-12-24T06:56:36.092Z,2.16
2016-12-24T06:57:36.073Z,2.27
2016-12-24T06:58:36.479Z,2.22
2016-12-24T06:59:36.670Z,2.15
2016-12-24T07:00:36.712Z,2.31
2016-12-24T07:01:36.886Z,2.31
2016-12-24T07:02:36.342Z,2.3
2016-12-24T07:03:35.980Z,2.26
2016-12-24T07:04:35.967Z,2.29
2016-12-24T07:05:35.951Z,2.27
2016-12-24T07:06:36.534Z,2.34
2016-12-24T07:07:35.918Z,2.3
2016-12-24T07:08:35.900Z,2.36
2016-12-24T07:09:35.885Z,2.31
2016-12-24T07:10:35.874Z,2.34
2016-12-24T07:11:35.851Z,2.27
2016-12-24T07:12:35.836Z,2.31
2016-12-24T07:13:35.820Z,2.4
2016-12-24T07:14:35.808Z,2.38
2016-12-24T07:15:35.795Z,2.33
2016-12-24T07:16:36.093Z,2.41
2016-12-24T07:17:35.758Z,2.45
2016-12-24T07:18:35.740Z,2.42
2016-12-24T07:19:35.726Z,2.44
2016-12-24T07:20:35.714Z,2.36
2016-12-24T07:21:35.698Z,2.44
2016-12-24T07:22:35.675Z,2.52
2016-12-24T07:23:35.664Z,2.54
2016-12-24T07:24:35.648Z,2.51
2016-12-24T07:25:35.635Z,2.54
2016-12-24T07:26:35.618Z,2.55
2016-12-24T07:27:35.605Z,2.54
2016-12-24T07:28:35.585Z,2.55
2016-12-24T07:29:35.567Z,2.59
2016-12-24T07:30:35.558Z,2.62
2016-12-24T07:31:35.554Z,2.55
2016-12-24T07:32:35.520Z,2.51
2016-12-24T07:33:35.505Z,2.58
2016-12-24T07:34:35.490Z,2.55
2016-12-24T07:35:35.476Z,2.62
2016-12-24T07:36:35.457Z,2.58
2016-12-24T07:37:35.443Z,2.55
2016-12-24T07:38:35.431Z,2.55
2016-12-24T07:39:35.409Z,2.54
2016-12-24T07:40:35.396Z,2.69
2016-12-24T07:41:35.385Z,2.6
2016-12-24T07:42:35.362Z,2.66
2016-12-24T07:43:35.344Z,2.72
2016-12-24T07:44:35.335Z,2.7
2016-12-24T07:45:35.322Z,2.73
2016-12-24T07:46:35.303Z,2.65
2016-12-24T07:47:35.285Z,2.76
2016-12-24T07:48:35.271Z,2.66
2016-12-24T07:49:35.255Z,2.67
2016-12-24T07:50:35.241Z,2.72
2016-12-24T07:51:35.227Z,2.69
2016-12-24T07:52:35.208Z,2.7
2016-12-24T07:53:35.192Z,2.73
2016-12-24T07:54:35.496Z,2.77
2016-12-24T07:55:35.163Z,2.77
2016-12-24T07:56:35.148Z,2.77
2016-12-24T07:57:35.128Z,2.73
2016-12-24T07:58:35.118Z,2.76
2016-12-24T07:59:35.099Z,2.73
2016-12-24T08:00:35.084Z,2.78
2016-12-24T08:01:35.073Z,2.78
2016-12-24T08:02:35.053Z,2.78
2016-12-24T08:03:35.038Z,2.77
2016-12-24T08:04:35.023Z,2.81
2016-12-24T08:05:35.319Z,2.81
2016-12-24T08:06:34.993Z,2.8
2016-12-24T08:07:34.974Z,2.78
2016-12-24T08:08:34.962Z,2.84
2016-12-24T08:09:34.947Z,2.85
2016-12-24T08:10:34.928Z,2.87
2016-12-24T08:11:34.916Z,2.8
2016-12-24T08:12:34.896Z,2.83
2016-12-24T08:13:34.883Z,2.95
2016-12-24T08:14:34.869Z,2.83
2016-12-24T08:15:34.854Z,2.85
2016-12-24T08:16:34.835Z,2.91
2016-12-24T08:17:34.823Z,2.88
2016-12-24T08:18:34.807Z,2.93
2016-12-24T08:19:34.792Z,2.91
2016-12-24T08:20:34.773Z,2.83
2016-12-24T08:21:34.764Z,2.83
2016-12-24T08:22:34.741Z,2.85
2016-12-24T08:23:34.730Z,2.96
2016-12-24T08:24:34.712Z,2.96
2016-12-24T08:25:34.699Z,2.8
2016-12-24T08:26:34.679Z,2.81
2016-12-24T08:27:34.666Z,2.8
2016-12-24T08:28:34.649Z,2.8
2016-12-24T08:29:34.637Z,2.83
2016-12-24T08:30:34.618Z,2.81
2016-12-24T08:31:34.611Z,2.93
2016-12-24T08:32:34.589Z,2.85
2016-12-24T08:33:34.573Z,2.83
2016-12-24T08:34:34.560Z,2.8
2016-12-24T08:35:34.544Z,2.81
2016-12-24T08:36:34.527Z,2.85
2016-12-24T08:37:34.824Z,2.78
2016-12-24T08:38:34.499Z,2.85
2016-12-24T08:39:34.485Z,2.88
2016-12-24T08:40:34.466Z,2.85
2016-12-24T08:41:34.448Z,2.83
2016-12-24T08:42:34.437Z,2.81
2016-12-24T08:43:34.418Z,2.81
2016-12-24T08:44:34.405Z,2.81
2016-12-24T08:45:34.390Z,2.83
2016-12-24T08:46:34.373Z,2.78
2016-12-24T08:47:34.367Z,2.8
2016-12-24T08:48:34.343Z,2.81
2016-12-24T08:49:34.643Z,2.8
2016-12-24T08:50:34.312Z,2.8
2016-12-24T08:51:34.295Z,2.77
2016-12-24T08:52:34.283Z,2.8
2016-12-24T08:53:34.265Z,2.72
2016-12-24T08:54:34.284Z,2.76
2016-12-24T08:55:34.235Z,2.73
2016-12-24T08:56:34.221Z,2.81
2016-12-24T08:57:34.205Z,2.77
2016-12-24T08:58:34.190Z,2.81
2016-12-24T08:59:34.175Z,2.78
2016-12-24T09:00:34.157Z,2.7
2016-12-24T09:01:34.144Z,2.73
2016-12-24T09:02:34.133Z,2.73
2016-12-24T09:03:34.112Z,2.73
2016-12-24T09:04:34.096Z,2.78
2016-12-24T09:05:34.083Z,2.6
2016-12-24T09:06:34.064Z,2.72
2016-12-24T09:07:34.049Z,2.72
2016-12-24T09:08:34.033Z,2.67
2016-12-24T09:09:34.021Z,2.7
2016-12-24T09:10:34.000Z,2.6
2016-12-24T09:11:33.997Z,2.63
2016-12-24T09:12:34.294Z,2.66
2016-12-24T09:13:33.959Z,2.59
2016-12-24T09:14:33.942Z,2.63
2016-12-24T09:15:33.935Z,2.58
2016-12-24T09:16:33.914Z,2.66
2016-12-24T09:17:33.892Z,2.65
2016-12-24T09:18:34.191Z,2.63
2016-12-24T09:19:33.864Z,2.62
2016-12-24T09:20:33.853Z,2.67
2016-12-24T09:21:33.833Z,2.67
2016-12-24T09:22:33.820Z,2.62
2016-12-24T09:23:33.804Z,2.7
2016-12-24T09:24:33.789Z,2.73
2016-12-24T09:25:33.772Z,2.73
2016-12-24T09:26:33.755Z,2.72
2016-12-24T09:27:33.740Z,2.72
2016-12-24T09:28:33.728Z,2.76
2016-12-24T09:29:33.710Z,2.76
2016-12-24T09:30:33.695Z,2.67
2016-12-24T09:31:33.681Z,2.73
2016-12-24T09:32:33.666Z,2.73
2016-12-24T09:33:33.648Z,2.78
2016-12-24T09:34:33.632Z,2.81
2016-12-24T09:35:33.615Z,2.83
2016-12-24T09:36:33.653Z,2.9
2016-12-24T09:37:33.585Z,2.8
2016-12-24T09:38:33.578Z,2.84
2016-12-24T09:39:33.555Z,2.81
2016-12-24T09:40:33.539Z,2.91
2016-12-24T09:41:33.527Z,2.95
2016-12-24T09:42:33.511Z,2.93
2016-12-24T09:43:33.496Z,2.93
2016-12-24T09:44:33.482Z,2.99
2016-12-24T09:45:33.466Z,3.01
2016-12-24T09:46:33.451Z,2.93
2016-12-24T09:47:33.431Z,2.95
2016-12-24T09:48:33.421Z,3.06
2016-12-24T09:49:33.403Z,2.95
2016-12-24T09:50:33.388Z,2.98
2016-12-24T09:51:33.372Z,3.01
2016-12-24T09:52:33.356Z,3.03
2016-12-24T09:53:33.342Z,2.99
2016-12-24T09:54:33.324Z,2.93
2016-12-24T09:55:33.312Z,2.9
2016-12-24T09:56:33.296Z,2.99
2016-12-24T09:57:33.283Z,2.95
2016-12-24T09:58:33.264Z,3.02
2016-12-24T09:59:33.254Z,3.02
2016-12-24T10:00:33.237Z,3.01
2016-12-24T10:01:33.220Z,2.9
2016-12-24T10:02:33.207Z,3.02
2016-12-24T10:03:33.191Z,3.02
2016-12-24T10:04:33.177Z,3.01
2016-12-24T10:05:33.158Z,2.93
2016-12-24T10:06:33.146Z,2.96
2016-12-24T10:07:33.443Z,2.98
2016-12-24T10:08:33.115Z,2.96
2016-12-24T10:09:33.132Z,3.01
2016-12-24T10:10:33.086Z,3.05
2016-12-24T10:11:33.069Z,3.03
2016-12-24T10:12:33.054Z,3.02
2016-12-24T10:13:33.036Z,3.02
2016-12-24T10:14:33.024Z,3.06
2016-12-24T10:15:33.008Z,3.06
2016-12-24T10:16:32.994Z,3.13
2016-12-24T10:17:32.979Z,3.09
2016-12-24T10:18:32.962Z,3.05
2016-12-24T10:19:32.950Z,3.11
2016-12-24T10:20:32.933Z,3.08
2016-12-24T10:21:32.921Z,3.09
2016-12-24T10:22:32.903Z,3.19
2016-12-24T10:23:32.892Z,3.19
2016-12-24T10:24:32.872Z,3.13
2016-12-24T10:25:32.863Z,3.17
2016-12-24T10:26:32.842Z,3.16
2016-12-24T10:27:32.830Z,3.16
2016-12-24T10:28:32.812Z,3.03
2016-12-24T10:29:32.796Z,3.17
2016-12-24T10:30:32.784Z,3.19
2016-12-24T10:31:32.765Z,3.13
2016-12-24T10:32:32.753Z,3.09
2016-12-24T10:33:32.737Z,3.14
2016-12-24T10:34:32.724Z,3.11
2016-12-24T10:35:32.704Z,3.13
2016-12-24T10:36:32.694Z,3.17
2016-12-24T10:37:32.676Z,3.14
2016-12-24T10:38:32.659Z,3.2
2016-12-24T10:39:32.654Z,3.13
2016-12-24T10:40:32.630Z,3.16
2016-12-24T10:41:32.617Z,3.14
2016-12-24T10:42:32.596Z,3.17
2016-12-24T10:43:32.587Z,3.14
2016-12-24T10:44:32.568Z,3.09
2016-12-24T10:45:32.553Z,3.19
2016-12-24T10:46:32.540Z,3.14
2016-12-24T10:47:32.534Z,3.17
2016-12-24T10:48:32.511Z,3.16
2016-12-24T10:49:32.495Z,3.21
2016-12-24T10:50:32.477Z,3.21
2016-12-24T10:51:32.780Z,3.23
2016-12-24T10:52:32.450Z,3.17
2016-12-24T10:53:32.436Z,3.35
2016-12-24T10:54:32.426Z,3.32
2016-12-24T10:55:32.408Z,3.37
2016-12-24T10:56:32.387Z,3.45
2016-12-24T10:57:32.379Z,3.48
2016-12-24T10:58:32.360Z,3.37
2016-12-24T10:59:32.348Z,3.39
2016-12-24T11:00:32.329Z,3.45
2016-12-24T11:01:32.318Z,3.42
2016-12-24T11:02:32.302Z,3.49
2016-12-24T11:03:32.290Z,3.49
2016-12-24T11:04:32.269Z,3.43
2016-12-24T11:05:32.258Z,3.45
2016-12-24T11:06:32.243Z,3.53
2016-12-24T11:07:32.235Z,3.48
2016-12-24T11:08:32.212Z,3.49
2016-12-24T11:09:32.200Z,3.4
2016-12-24T11:10:32.185Z,3.4
2016-12-24T11:11:32.170Z,3.42
2016-12-24T11:12:32.153Z,3.46
2016-12-24T11:13:32.141Z,3.46
2016-12-24T11:14:32.129Z,3.46
2016-12-24T11:15:32.112Z,3.49
2016-12-24T11:16:32.101Z,3.42
2016-12-24T11:17:32.079Z,3.4
2016-12-24T11:18:32.066Z,3.42
2016-12-24T11:19:32.048Z,3.49
2016-12-24T11:20:32.051Z,3.48
2016-12-24T11:21:32.018Z,3.43
2016-12-24T11:22:32.007Z,3.45
2016-12-24T11:23:32.308Z,3.4
2016-12-24T11:24:31.972Z,3.45
2016-12-24T11:25:31.963Z,3.46
2016-12-24T11:26:31.947Z,3.45
2016-12-24T11:27:31.930Z,3.4
2016-12-24T11:28:31.920Z,3.35
2016-12-24T11:29:31.904Z,3.42
2016-12-24T11:30:31.887Z,3.42
2016-12-24T11:31:31.874Z,3.39
2016-12-24T11:32:31.857Z,3.34
2016-12-24T11:33:31.841Z,3.34
2016-12-24T11:34:31.833Z,3.45
2016-12-24T11:35:31.812Z,3.45
2016-12-24T11:36:31.800Z,3.39
2016-12-24T11:37:31.782Z,3.42
2016-12-24T11:38:31.768Z,3.49
2016-12-24T11:39:31.751Z,3.48
2016-12-24T11:40:31.744Z,3.54
2016-12-24T11:41:31.722Z,3.57
2016-12-24T11:42:31.711Z,3.56
2016-12-24T11:43:31.696Z,3.56
2016-12-24T11:44:31.686Z,3.51
2016-12-24T11:45:31.662Z,3.57
2016-12-24T11:46:31.651Z,3.63
2016-12-24T11:47:31.631Z,3.51
2016-12-24T11:48:31.629Z,3.56
2016-12-24T11:49:31.605Z,3.54
2016-12-24T11:50:31.614Z,3.53
2016-12-24T11:51:31.573Z,3.54
2016-12-24T11:52:31.562Z,3.56
2016-12-24T11:53:31.551Z,3.54
2016-12-24T11:54:31.528Z,3.48
2016-12-24T11:55:31.517Z,3.51
2016-12-24T11:56:31.501Z,3.54
2016-12-24T11:57:31.491Z,3.58
2016-12-24T11:58:31.472Z,3.53
2016-12-24T11:59:31.457Z,3.57
2016-12-24T12:00:31.444Z,3.6
2016-12-24T12:01:31.432Z,3.49
2016-12-24T12:02:31.413Z,3.56
2016-12-24T12:03:31.398Z,3.54
2016-12-24T12:04:31.383Z,3.46
2016-12-24T12:05:31.404Z,3.56
2016-12-24T12:06:31.352Z,3.6
2016-12-24T12:07:31.341Z,3.49
2016-12-24T12:08:31.337Z,3.56
2016-12-24T12:09:31.318Z,3.63
2016-12-24T12:10:31.293Z,3.57
2016-12-24T12:11:31.284Z,3.58
2016-12-24T12:12:31.266Z,3.69
2016-12-24T12:13:31.255Z,3.6
2016-12-24T12:14:31.237Z,3.67
2016-12-24T12:15:31.217Z,3.57
2016-12-24T12:16:31.207Z,3.63
2016-12-24T12:17:31.197Z,3.57
2016-12-24T12:18:31.180Z,3.67
2016-12-24T12:19:31.187Z,3.69
2016-12-24T12:20:31.150Z,3.69
2016-12-24T12:21:31.133Z,3.61
2016-12-24T12:22:31.118Z,3.71
2016-12-24T12:23:31.114Z,3.78
2016-12-24T12:24:31.091Z,3.76
2016-12-24T12:25:31.076Z,3.75
2016-12-24T12:26:31.378Z,3.86
2016-12-24T12:27:31.045Z,3.78
2016-12-24T12:28:31.035Z,3.82
2016-12-24T12:29:31.025Z,3.89
2016-12-24T12:30:31.000Z,3.86
2016-12-24T12:31:30.985Z,3.9
2016-12-24T12:32:30.973Z,3.85
2016-12-24T12:33:30.957Z,3.94
2016-12-24T12:34:30.945Z,3.93
2016-12-24T12:35:30.929Z,4.1
2016-12-24T12:36:30.916Z,4.1
2016-12-24T12:37:30.901Z,4.14
2016-12-24T12:38:30.883Z,4.14
2016-12-24T12:39:30.868Z,4.22
2016-12-24T12:40:30.858Z,4.28
2016-12-24T12:41:30.846Z,4.18
2016-12-24T12:42:30.829Z,4.24
2016-12-24T12:43:30.811Z,4.3
2016-12-24T12:44:30.802Z,4.22
2016-12-24T12:45:30.786Z,4.26
2016-12-24T12:46:30.773Z,4.22
2016-12-24T12:47:30.758Z,4.15
2016-12-24T12:48:30.756Z,4.21
2016-12-24T12:49:30.728Z,4.29
2016-12-24T12:50:30.716Z,4.24
2016-12-24T12:51:30.701Z,4.26
2016-12-24T12:52:30.695Z,4.26
2016-12-24T12:53:30.674Z,4.2
2016-12-24T12:54:30.664Z,4.28
2016-12-24T12:55:30.673Z,4.29
2016-12-24T12:56:30.655Z,4.28
2016-12-24T12:57:30.644Z,4.32
2016-12-24T12:58:30.965Z,4.29
2016-12-24T12:59:30.613Z,4.3
2016-12-24T13:00:30.598Z,4.26
2016-12-24T13:01:30.588Z,4.26
2016-12-24T13:02:30.578Z,4.3
2016-12-24T13:03:30.558Z,4.26
2016-12-24T13:04:30.550Z,4.3
2016-12-24T13:05:30.545Z,4.29
2016-12-24T13:06:30.522Z,4.26
2016-12-24T13:07:30.507Z,4.26
2016-12-24T13:08:30.487Z,4.17
2016-12-24T13:09:30.477Z,4.2
2016-12-24T13:10:30.461Z,4.18
2016-12-24T13:11:30.451Z,4.11
2016-12-24T13:12:30.433Z,4.21
2016-12-24T13:13:30.420Z,4.17
2016-12-24T13:14:30.406Z,4.11
2016-12-24T13:15:30.392Z,4.12
2016-12-24T13:16:30.378Z,4.2
2016-12-24T13:17:30.366Z,4.22
2016-12-24T13:18:30.355Z,4.18
2016-12-24T13:19:30.333Z,4.3
2016-12-24T13:20:30.318Z,4.28
2016-12-24T13:21:30.311Z,4.29